Time;durP1;ratioP1;P1;durP2;ratioP2;P2;SDS_P1;SDS_P2;PMS_P1;PMS_P2;Temp;Humidity;BMP_temperature;BMP_pressure;BME280_temperature;BME280_humidity;BME280_pressure;Samples;Min_cycle;Max_cycle;Signal;HPM_P1;HPM_P2
2023/06/04 00:02:22;;;;;;;;;;;;;;;3.35;100.00;99436.16;4879058;29;19928;-85
2023/06/04 00:04:49;;;;;;;;;;;;;;;3.36;100.00;99437.00;4878273;29;19927;-85
2023/06/04 00:07:16;;;;;;;;;;;;;;;3.33;100.00;99437.38;4877981;29;20066;-85
2023/06/04 00:09:46;;;;;;;;;;;;;;;3.32;100.00;99444.56;4878881;29;20399;-85
2023/06/04 00:12:13;;;;;;;;;;;;;;;3.33;100.00;99438.19;4878854;29;19971;-85
2023/06/04 00:14:41;;;;;;;;;;;;;;;3.33;100.00;99432.84;4878951;29;19927;-86
2023/06/04 00:17:08;;;;;;;;;;;;;;;3.36;100.00;99443.16;4877841;29;19927;-85
2023/06/04 00:19:35;;;;;;;;;;;;;;;3.35;100.00;99446.84;4877674;29;19927;-85
2023/06/04 00:22:02;;;;;;;;;;;;;;;3.43;100.00;99443.25;4878923;29;20610;-85
2023/06/04 00:24:29;;;;;;;;;;;;;;;3.50;100.00;99448.66;4879101;29;20299;-84
2023/06/04 00:26:56;;;;;;;;;;;;;;;3.53;100.00;99456.28;4878485;29;19928;-84
2023/06/04 00:29:23;;;;;;;;;;;;;;;3.54;100.00;99460.59;4878936;29;19983;-86
2023/06/04 00:31:50;;;;;;;;;;;;;;;3.46;100.00;99443.69;4878899;29;20454;-86
2023/06/04 00:34:18;;;;;;;;;;;;;;;3.43;100.00;99454.72;4885595;29;19934;-85
2023/06/04 00:36:45;;;;;;;;;;;;;;;3.38;100.00;99457.13;4890083;29;20287;-86
2023/06/04 00:39:18;;;;;;;;;;;;;;;3.39;100.00;99453.47;4880009;29;20375;-85
2023/06/04 00:41:45;;;;;;;;;;;;;;;3.39;100.00;99453.47;4877576;29;19927;-87
2023/06/04 00:44:12;;;;;;;;;;;;;;;3.40;100.00;99451.63;4878876;29;19928;-86
2023/06/04 00:46:39;;;;;;;;;;;;;;;3.35;100.00;99457.50;4877646;29;19928;-85
2023/06/04 00:49:06;;;;;;;;;;;;;;;3.38;100.00;99461.66;4877580;29;19931;-85
2023/06/04 00:51:33;;;;;;;;;;;;;;;3.38;100.00;99470.47;4846952;29;20310;-86
2023/06/04 00:54:08;;;;;;;;;;;;;;;3.47;100.00;99476.56;4877364;29;19928;-85
2023/06/04 00:56:37;;;;;;;;;;;;;;;3.43;100.00;99477.94;4877396;29;20022;-84
2023/06/04 00:59:06;;;;;;;;;;;;;;;3.42;100.00;99478.94;4877030;29;19934;-85
2023/06/04 01:01:40;;;;;;;;;;;;;;;3.41;100.00;99480.78;4877601;29;20338;-85
2023/06/04 01:04:14;;;;;;;;;;;;;;;3.32;100.00;99478.38;4878225;29;20460;-85
2023/06/04 01:06:46;;;;;;;;;;;;;;;3.24;100.00;99482.84;4877207;29;19932;-85
2023/06/04 01:09:14;;;;;;;;;;;;;;;3.22;100.00;99478.69;4863670;29;19972;-85
2023/06/04 01:11:41;;;;;;;;;;;;;;;3.20;100.00;99480.72;4878226;29;20012;-85
2023/06/04 01:14:09;;;;;;;;;;;;;;;3.18;100.00;99480.06;4876993;29;19975;-86
2023/06/04 01:16:40;;;;;;;;;;;;;;;3.21;100.00;99485.03;4876460;29;19928;-85
2023/06/04 01:19:20;;;;;;;;;;;;;;;3.29;100.00;99484.91;4876243;29;19928;-85
2023/06/04 01:21:50;;;;;;;;;;;;;;;3.32;100.00;99483.72;4876964;29;19934;-86
2023/06/04 01:24:17;;;;;;;;;;;;;;;3.36;100.00;99491.16;4861933;29;20418;-86
2023/06/04 01:26:46;;;;;;;;;;;;;;;3.42;99.88;99493.13;4876822;29;19927;-86
2023/06/04 01:29:16;;;;;;;;;;;;;;;3.44;99.34;99501.75;4876302;29;20354;-86
2023/06/04 01:31:46;;;;;;;;;;;;;;;3.43;98.75;99500.09;4876360;29;19931;-84
2023/06/04 01:34:14;;;;;;;;;;;;;;;3.45;98.59;99503.41;4876356;29;20415;-85
2023/06/04 01:36:41;;;;;;;;;;;;;;;3.45;98.14;99503.41;4877485;29;19943;-85
2023/06/04 01:39:11;;;;;;;;;;;;;;;3.47;97.76;99504.06;4876306;29;19932;-85
2023/06/04 01:41:38;;;;;;;;;;;;;;;3.44;97.68;99509.78;4877614;29;20000;-85
2023/06/04 01:44:07;;;;;;;;;;;;;;;3.41;97.60;99514.63;4877467;29;19935;-85
2023/06/04 01:46:35;;;;;;;;;;;;;;;3.32;97.46;99508.59;4877375;29;20403;-86
2023/06/04 01:49:02;;;;;;;;;;;;;;;3.26;97.96;99509.31;4876015;29;19966;-86
2023/06/04 01:51:30;;;;;;;;;;;;;;;3.30;98.12;99515.94;4877588;29;19952;-85
2023/06/04 01:54:01;;;;;;;;;;;;;;;3.33;97.96;99520.91;4876330;29;19927;-85
2023/06/04 01:56:28;;;;;;;;;;;;;;;3.30;97.94;99512.44;4876096;29;19928;-85
2023/06/04 01:58:56;;;;;;;;;;;;;;;3.34;97.73;99521.72;4875935;29;19936;-86
2023/06/04 02:01:26;;;;;;;;;;;;;;;3.35;97.49;99523.41;4876105;29;19927;-85
2023/06/04 02:03:53;;;;;;;;;;;;;;;3.36;97.67;99523.19;4878207;29;19983;-86
2023/06/04 02:06:20;;;;;;;;;;;;;;;3.39;97.42;99533.53;4877159;29;20403;-86
2023/06/04 02:08:47;;;;;;;;;;;;;;;3.42;97.16;99530.47;4876913;29;19928;-86
2023/06/04 02:11:14;;;;;;;;;;;;;;;3.42;97.24;99529.66;4877280;29;19929;-86
2023/06/04 02:13:41;;;;;;;;;;;;;;;3.47;97.05;99536.06;4876336;29;19927;-86
2023/06/04 02:16:08;;;;;;;;;;;;;;;3.57;96.69;99535.78;4877497;29;19951;-87
2023/06/04 02:18:36;;;;;;;;;;;;;;;3.65;96.18;99540.19;4877706;29;19927;-86
2023/06/04 02:21:03;;;;;;;;;;;;;;;3.66;95.84;99545.34;4876692;29;19960;-86
2023/06/04 02:23:31;;;;;;;;;;;;;;;3.70;95.68;99551.16;4877251;29;19928;-87
2023/06/04 02:26:05;;;;;;;;;;;;;;;3.77;95.26;99553.88;4877475;29;19999;-86
2023/06/04 02:28:32;;;;;;;;;;;;;;;3.82;94.93;99551.47;4876667;29;19936;-86
2023/06/04 02:30:59;;;;;;;;;;;;;;;3.87;94.73;99552.59;4879527;29;20071;-86
2023/06/04 02:33:25;;;;;;;;;;;;;;;3.93;94.14;99566.22;4880997;29;19939;-85
2023/06/04 02:35:52;;;;;;;;;;;;;;;3.96;93.92;99563.97;4880488;29;19943;-86
2023/06/04 02:38:22;;;;;;;;;;;;;;;4.01;93.69;99572.25;4879389;29;20035;-85
2023/06/04 02:40:49;;;;;;;;;;;;;;;4.05;93.71;99573.53;4880402;29;19928;-85
2023/06/04 02:43:16;;;;;;;;;;;;;;;4.08;93.40;99577.69;4883487;29;20027;-86
2023/06/04 02:45:43;;;;;;;;;;;;;;;4.12;93.24;99581.63;4868863;29;19931;-87
2023/06/04 02:48:10;;;;;;;;;;;;;;;4.12;93.29;99579.75;4882572;29;19928;-86
2023/06/04 02:50:37;;;;;;;;;;;;;;;4.16;93.10;99580.22;4886948;29;19927;-86
2023/06/04 02:53:06;;;;;;;;;;;;;;;4.21;93.00;99585.00;4887102;29;19982;-86
2023/06/04 02:55:33;;;;;;;;;;;;;;;4.25;92.42;99589.75;4889020;29;19931;-86
2023/06/04 02:58:02;;;;;;;;;;;;;;;4.29;92.38;99588.38;4880081;29;19936;-86
2023/06/04 03:00:29;;;;;;;;;;;;;;;4.36;92.13;99592.97;4879137;29;19934;-87
2023/06/04 03:03:01;;;;;;;;;;;;;;;4.41;91.73;99601.25;4878806;29;19931;-86
2023/06/04 03:05:31;;;;;;;;;;;;;;;4.45;91.47;99605.19;4877556;29;19928;-84
2023/06/04 03:08:00;;;;;;;;;;;;;;;4.49;91.27;99599.28;4874206;29;19927;-86
2023/06/04 03:10:27;;;;;;;;;;;;;;;4.54;90.87;99606.72;4894369;29;19927;-86
2023/06/04 03:12:54;;;;;;;;;;;;;;;4.60;90.58;99613.97;4880334;29;19936;-84
2023/06/04 03:15:23;;;;;;;;;;;;;;;4.66;90.58;99620.41;4877952;29;20369;-86
2023/06/04 03:17:51;;;;;;;;;;;;;;;4.70;90.33;99622.50;4871582;29;19958;-86
2023/06/04 03:20:28;;;;;;;;;;;;;;;4.77;90.08;99628.75;4879028;29;19933;-86
2023/06/04 03:22:58;;;;;;;;;;;;;;;4.84;89.87;99630.66;4878511;29;19982;-86
2023/06/04 03:25:25;;;;;;;;;;;;;;;4.89;89.85;99629.06;4875188;29;19928;-86
2023/06/04 03:27:51;;;;;;;;;;;;;;;4.98;89.74;99627.91;4867298;29;19931;-85
2023/06/04 03:30:19;;;;;;;;;;;;;;;5.08;89.32;99634.78;4889184;29;19927;-87
2023/06/04 03:32:55;;;;;;;;;;;;;;;5.18;88.95;99636.09;4880069;29;19931;-85
2023/06/04 03:35:22;;;;;;;;;;;;;;;5.24;88.30;99636.34;4879496;29;19932;-86
2023/06/04 03:37:49;;;;;;;;;;;;;;;5.30;87.88;99635.56;4879436;29;19927;-84
2023/06/04 03:40:16;;;;;;;;;;;;;;;5.38;87.93;99649.63;4877113;29;20047;-86
2023/06/04 03:42:46;;;;;;;;;;;;;;;5.45;87.56;99641.66;4878049;29;19935;-86
2023/06/04 03:45:14;;;;;;;;;;;;;;;5.51;87.37;99646.22;4878253;29;20383;-86
2023/06/04 03:47:43;;;;;;;;;;;;;;;5.60;86.98;99639.69;4858428;29;19948;-85
2023/06/04 03:50:10;;;;;;;;;;;;;;;5.70;86.84;99639.34;4827978;29;19964;-84
2023/06/04 03:52:37;;;;;;;;;;;;;;;5.77;86.42;99640.22;4858416;29;20034;-84
2023/06/04 03:55:06;;;;;;;;;;;;;;;5.85;86.27;99644.56;4857395;29;19928;-85
2023/06/04 03:57:34;;;;;;;;;;;;;;;5.94;85.86;99651.44;4842758;29;19928;-86
2023/06/04 04:00:03;;;;;;;;;;;;;;;6.02;85.46;99653.13;4858325;29;19990;-85
2023/06/04 04:02:39;;;;;;;;;;;;;;;6.14;85.37;99659.56;4858010;29;19963;-85
2023/06/04 04:05:18;;;;;;;;;;;;;;;6.21;84.73;99665.78;4852787;29;19969;-85
2023/06/04 04:07:49;;;;;;;;;;;;;;;6.24;84.24;99661.88;4828175;29;19928;-86
2023/06/04 04:10:21;;;;;;;;;;;;;;;6.32;84.20;99650.97;4842822;29;20430;-86
2023/06/04 04:12:48;;;;;;;;;;;;;;;6.38;84.03;99657.38;4858060;29;20517;-86
2023/06/04 04:15:17;;;;;;;;;;;;;;;6.48;83.45;99661.34;4842820;29;19938;-85
2023/06/04 04:17:44;;;;;;;;;;;;;;;6.54;82.91;99664.25;4835858;29;19928;-86
2023/06/04 04:20:12;;;;;;;;;;;;;;;6.59;82.70;99653.75;4865650;29;19931;-86
2023/06/04 04:22:48;;;;;;;;;;;;;;;6.67;82.13;99662.41;4858891;29;20023;-86
2023/06/04 04:25:19;;;;;;;;;;;;;;;6.78;82.18;99669.03;4843611;29;19928;-86
2023/06/04 04:27:50;;;;;;;;;;;;;;;6.87;81.61;99667.81;4858722;29;20038;-87
2023/06/04 04:30:35;;;;;;;;;;;;;;;6.92;81.15;99665.34;4858693;29;20442;-86
2023/06/04 04:33:06;;;;;;;;;;;;;;;6.96;80.88;99665.75;4858881;29;19935;-85
2023/06/04 04:35:44;;;;;;;;;;;;;;;7.01;80.02;99659.78;4858984;29;19976;-87
2023/06/04 04:38:17;;;;;;;;;;;;;;;7.08;79.96;99674.88;4858860;29;20035;-86
2023/06/04 04:40:51;;;;;;;;;;;;;;;7.14;79.57;99673.22;4858811;29;19975;-87
2023/06/04 04:43:30;;;;;;;;;;;;;;;7.24;79.43;99676.34;4862782;29;20044;-86
2023/06/04 04:45:59;;;;;;;;;;;;;;;7.28;78.76;99685.59;4869549;29;19996;-86
2023/06/04 04:48:26;;;;;;;;;;;;;;;7.35;78.67;99674.88;4857548;29;19978;-86
2023/06/04 04:50:54;;;;;;;;;;;;;;;7.37;77.92;99676.31;4829887;29;19965;-84
2023/06/04 04:53:21;;;;;;;;;;;;;;;7.47;77.78;99678.59;4861217;29;20047;-85
2023/06/04 04:55:48;;;;;;;;;;;;;;;7.60;77.35;99678.56;4876022;29;20121;-84
2023/06/04 04:58:16;;;;;;;;;;;;;;;7.67;77.23;99689.31;4877192;29;20405;-86
2023/06/04 05:00:44;;;;;;;;;;;;;;;7.74;76.83;99687.44;4858162;29;19928;-86
2023/06/04 05:03:11;;;;;;;;;;;;;;;7.86;76.39;99692.19;4853698;29;19952;-88
2023/06/04 05:05:38;;;;;;;;;;;;;;;7.99;75.97;99697.53;4866584;29;19938;-87
2023/06/04 05:08:05;;;;;;;;;;;;;;;7.99;75.69;99684.91;4859961;29;19934;-87
2023/06/04 05:10:38;;;;;;;;;;;;;;;7.98;75.83;99695.88;4844346;29;20365;-87
2023/06/04 05:13:10;;;;;;;;;;;;;;;8.14;75.75;99698.09;4852216;29;20027;-85
2023/06/04 05:15:52;;;;;;;;;;;;;;;8.34;75.53;99698.03;4842429;29;20372;-86
2023/06/04 05:18:28;;;;;;;;;;;;;;;8.46;75.11;99692.84;4844447;29;19928;-86
2023/06/04 05:21:28;;;;;;;;;;;;;;;8.57;74.70;99697.53;4843167;29;19998;-87
2023/06/04 05:24:00;;;;;;;;;;;;;;;8.57;74.54;99688.66;4842757;29;19964;-87
2023/06/04 05:26:33;;;;;;;;;;;;;;;8.63;74.22;99688.63;4860406;29;19928;-86
2023/06/04 05:29:09;;;;;;;;;;;;;;;8.70;74.22;99677.81;4866112;29;20000;-87
2023/06/04 05:31:39;;;;;;;;;;;;;;;8.78;73.14;99684.81;4875031;29;19932;-87
2023/06/04 05:34:11;;;;;;;;;;;;;;;8.76;71.97;99681.50;4866571;29;19970;-87
2023/06/04 05:36:39;;;;;;;;;;;;;;;8.88;72.02;99687.84;4868530;29;20003;-87
2023/06/04 05:39:09;;;;;;;;;;;;;;;9.06;71.54;99687.94;4876762;29;19928;-86
2023/06/04 05:41:48;;;;;;;;;;;;;;;9.21;70.30;99693.00;4867278;29;20019;-86
2023/06/04 05:44:16;;;;;;;;;;;;;;;9.24;69.57;99695.28;4858488;29;20379;-86
2023/06/04 05:46:45;;;;;;;;;;;;;;;9.34;69.12;99689.38;4860048;29;20403;-88
2023/06/04 05:49:13;;;;;;;;;;;;;;;9.52;68.38;99692.16;4864551;29;19980;-87
2023/06/04 05:51:40;;;;;;;;;;;;;;;9.51;66.63;99695.03;4858971;29;19928;-86
2023/06/04 05:54:07;;;;;;;;;;;;;;;9.73;66.27;99699.00;4843263;29;20501;-87
2023/06/04 05:56:38;;;;;;;;;;;;;;;10.03;65.28;99698.28;4861580;29;19928;-87
2023/06/04 05:59:05;;;;;;;;;;;;;;;9.95;65.68;99696.72;4867866;29;19935;-88
2023/06/04 06:01:32;;;;;;;;;;;;;;;9.98;64.40;99707.03;4528598;29;10000721;-85
2023/06/04 06:04:02;;;;;;;;;;;;;;;10.03;63.17;99709.06;4885251;29;19928;-87
2023/06/04 06:06:30;;;;;;;;;;;;;;;9.95;62.12;99712.03;4892391;29;19932;-87
2023/06/04 06:08:58;;;;;;;;;;;;;;;10.02;62.03;99706.59;4875647;29;19919;-84
2023/06/04 06:11:28;;;;;;;;;;;;;;;10.18;61.97;99692.53;4884352;29;19920;-88
2023/06/04 06:13:56;;;;;;;;;;;;;;;10.35;61.74;99707.06;4888072;29;19952;-86
2023/06/04 06:16:23;;;;;;;;;;;;;;;10.22;60.76;99695.59;4870353;29;19952;-88
2023/06/04 06:18:51;;;;;;;;;;;;;;;10.40;60.77;99695.59;4863442;29;19963;-87
2023/06/04 06:21:22;;;;;;;;;;;;;;;10.55;60.26;99701.41;4881853;29;19927;-84
2023/06/04 06:23:48;;;;;;;;;;;;;;;10.58;59.71;99709.09;4881175;29;20022;-86
2023/06/04 06:26:15;;;;;;;;;;;;;;;10.78;58.16;99703.41;4860944;29;20210;-87
2023/06/04 06:28:49;;;;;;;;;;;;;;;10.63;58.45;99714.63;4877010;29;19928;-88
2023/06/04 06:31:17;;;;;;;;;;;;;;;10.80;59.25;99709.41;4870502;29;19927;-88
2023/06/04 06:33:44;;;;;;;;;;;;;;;10.94;58.04;99711.91;4865408;29;19967;-89
2023/06/04 06:36:18;;;;;;;;;;;;;;;10.77;58.64;99706.34;4875959;29;20439;-88
2023/06/04 06:38:46;;;;;;;;;;;;;;;10.65;59.00;99708.16;4869151;29;20038;-87
2023/06/04 06:41:13;;;;;;;;;;;;;;;10.95;58.88;99705.47;4882225;29;19934;-87
2023/06/04 06:43:43;;;;;;;;;;;;;;;11.20;57.81;99708.81;4864526;29;19927;-88
2023/06/04 06:46:14;;;;;;;;;;;;;;;11.05;58.01;99706.56;4887059;29;19927;-84
2023/06/04 06:48:45;;;;;;;;;;;;;;;10.99;57.40;99701.28;4861357;29;19927;-87
2023/06/04 06:51:15;;;;;;;;;;;;;;;11.12;57.30;99694.84;4863225;29;19967;-85
2023/06/04 06:53:49;;;;;;;;;;;;;;;11.49;57.24;99700.88;4859398;29;20422;-87
2023/06/04 06:56:19;;;;;;;;;;;;;;;11.34;56.37;99709.44;4880121;29;20015;-83
2023/06/04 06:58:45;;;;;;;;;;;;;;;10.96;57.13;99707.09;4875528;29;19980;-85
2023/06/04 07:01:15;;;;;;;;;;;;;;;11.01;55.87;99701.84;4871275;29;19935;-83
2023/06/04 07:03:45;;;;;;;;;;;;;;;11.31;56.19;99709.09;4880942;29;20333;-85
2023/06/04 07:06:16;;;;;;;;;;;;;;;11.38;55.84;99699.00;4876797;29;20403;-81
2023/06/04 07:08:43;;;;;;;;;;;;;;;11.65;55.72;99705.59;4871291;29;20071;-80
2023/06/04 07:11:13;;;;;;;;;;;;;;;11.46;54.99;99704.88;4872668;29;19928;-82
2023/06/04 07:13:59;;;;;;;;;;;;;;;11.64;55.30;99703.13;4868318;29;19934;-81
2023/06/04 07:16:28;;;;;;;;;;;;;;;11.83;51.60;99709.25;4872277;29;19928;-82
2023/06/04 07:19:00;;;;;;;;;;;;;;;12.08;51.60;99698.22;4873240;29;20407;-81
2023/06/04 07:21:27;;;;;;;;;;;;;;;12.26;51.03;99695.34;4871324;29;19928;-83
2023/06/04 07:24:02;;;;;;;;;;;;;;;12.27;50.92;99709.72;4873122;29;20030;-81
2023/06/04 07:26:30;;;;;;;;;;;;;;;12.09;51.68;99711.50;4871336;29;20355;-84
2023/06/04 07:29:00;;;;;;;;;;;;;;;11.97;50.98;99710.69;4863738;29;19996;-84
2023/06/04 07:31:27;;;;;;;;;;;;;;;12.11;51.64;99720.19;4864968;29;20341;-85
2023/06/04 07:33:54;;;;;;;;;;;;;;;12.06;51.07;99706.56;4868188;29;19928;-84
2023/06/04 07:36:24;;;;;;;;;;;;;;;12.23;51.36;99703.97;4868700;29;19932;-84
2023/06/04 07:38:51;;;;;;;;;;;;;;;12.60;49.96;99710.91;4874505;29;19989;-84
2023/06/04 07:41:18;;;;;;;;;;;;;;;12.78;48.03;99716.13;4871634;29;19927;-86
2023/06/04 07:43:48;;;;;;;;;;;;;;;12.64;48.03;99717.50;4861596;29;19928;-83
2023/06/04 07:46:20;;;;;;;;;;;;;;;12.48;47.76;99719.91;4872945;29;19928;-84
2023/06/04 07:48:47;;;;;;;;;;;;;;;12.58;46.81;99713.84;4876905;29;19928;-83
2023/06/04 07:51:14;;;;;;;;;;;;;;;12.83;45.15;99710.00;4890701;29;19912;-84
2023/06/04 07:53:42;;;;;;;;;;;;;;;13.06;44.56;99719.91;4895628;29;19928;-84
2023/06/04 07:56:09;;;;;;;;;;;;;;;13.24;42.89;99730.53;4890851;29;19928;-84
2023/06/04 07:58:36;;;;;;;;;;;;;;;12.88;43.29;99708.22;4886611;29;19927;-84
2023/06/04 08:01:03;;;;;;;;;;;;;;;13.22;43.84;99708.28;4880055;29;19982;-84
2023/06/04 08:03:31;;;;;;;;;;;;;;;13.58;43.44;99711.63;4874621;29;19928;-85
2023/06/04 08:06:07;;;;;;;;;;;;;;;13.77;40.96;99725.75;4853416;29;19932;-86
2023/06/04 08:08:37;;;;;;;;;;;;;;;13.40;41.31;99720.81;4882452;29;19935;-85
2023/06/04 08:11:05;;;;;;;;;;;;;;;13.26;42.97;99711.31;4878474;29;19927;-87
2023/06/04 08:13:33;;;;;;;;;;;;;;;12.94;43.33;99718.09;4880709;29;19971;-86
2023/06/04 08:16:00;;;;;;;;;;;;;;;13.17;43.00;99716.34;4877055;29;19943;-85
2023/06/04 08:18:49;;;;;;;;;;;;;;;13.91;40.25;99720.81;4864291;29;20018;-87
2023/06/04 08:21:25;;;;;;;;;;;;;;;13.36;39.77;99730.50;4844513;29;20311;-87
2023/06/04 08:24:02;;;;;;;;;;;;;;;12.99;40.92;99737.16;4860368;29;20000;-88
2023/06/04 08:26:50;;;;;;;;;;;;;;;12.86;41.85;99723.88;4860840;29;19928;-87
2023/06/04 08:29:25;;;;;;;;;;;;;;;12.67;41.67;99723.25;4870605;29;19928;-85
2023/06/04 08:32:14;;;;;;;;;;;;;;;12.21;42.36;99724.19;4864235;29;20376;-85
2023/06/04 08:34:52;;;;;;;;;;;;;;;12.10;42.21;99718.56;4870680;29;19928;-82
2023/06/04 08:37:21;;;;;;;;;;;;;;;12.36;42.62;99721.81;4869132;29;19927;-83
2023/06/04 08:39:48;;;;;;;;;;;;;;;12.91;42.03;99712.31;4866014;29;19967;-85
2023/06/04 08:42:22;;;;;;;;;;;;;;;13.74;40.17;99727.06;4870866;29;19928;-84
2023/06/04 08:44:55;;;;;;;;;;;;;;;13.46;40.84;99736.09;4861301;29;19935;-85
2023/06/04 08:47:22;;;;;;;;;;;;;;;13.42;41.51;99735.78;4868301;29;20481;-83
2023/06/04 08:49:52;;;;;;;;;;;;;;;13.62;41.84;99729.03;4866581;29;19928;-83
2023/06/04 08:52:22;;;;;;;;;;;;;;;13.59;41.63;99740.38;4866128;29;19927;-82
2023/06/04 08:54:53;;;;;;;;;;;;;;;13.76;39.63;99719.50;4849964;29;19928;-82
2023/06/04 08:57:20;;;;;;;;;;;;;;;13.58;41.14;99736.03;4861413;29;19928;-81
2023/06/04 08:59:47;;;;;;;;;;;;;;;13.69;41.01;99726.97;4875332;29;19928;-79
2023/06/04 09:02:16;;;;;;;;;;;;;;;13.02;39.52;99755.63;4873726;29;19931;-81
2023/06/04 09:04:43;;;;;;;;;;;;;;;12.45;39.90;99731.19;4868352;29;19927;-78
2023/06/04 09:07:11;;;;;;;;;;;;;;;12.12;40.84;99737.25;4882399;29;19986;-80
2023/06/04 09:09:38;;;;;;;;;;;;;;;12.08;41.70;99736.91;4865257;29;20478;-81
2023/06/04 09:12:10;;;;;;;;;;;;;;;12.10;42.56;99745.63;4860274;29;19954;-80
2023/06/04 09:14:37;;;;;;;;;;;;;;;12.29;42.45;99742.78;4875815;29;20018;-82
2023/06/04 09:17:05;;;;;;;;;;;;;;;12.22;42.97;99758.31;4875426;29;19932;-81
2023/06/04 09:19:32;;;;;;;;;;;;;;;12.26;42.83;99735.94;4872053;29;19928;-81
2023/06/04 09:22:02;;;;;;;;;;;;;;;12.55;42.75;99739.53;4871908;29;19933;-81
2023/06/04 09:24:43;;;;;;;;;;;;;;;12.84;42.49;99734.16;4870151;29;20306;-82
2023/06/04 09:27:11;;;;;;;;;;;;;;;13.08;41.49;99739.47;4875031;29;20376;-82
2023/06/04 09:29:38;;;;;;;;;;;;;;;13.24;41.05;99738.66;4876346;29;20323;-81
2023/06/04 09:32:08;;;;;;;;;;;;;;;13.19;40.83;99746.69;4876512;29;19928;-82
2023/06/04 09:34:36;;;;;;;;;;;;;;;13.26;40.50;99746.56;4876262;29;19934;-80
2023/06/04 09:37:13;;;;;;;;;;;;;;;13.50;39.63;99741.88;4870184;29;19928;-80
2023/06/04 09:39:40;;;;;;;;;;;;;;;13.76;40.07;99737.66;4863513;29;20310;-80
2023/06/04 09:42:08;;;;;;;;;;;;;;;14.05;38.76;99738.34;4862175;29;19928;-80
2023/06/04 09:44:47;;;;;;;;;;;;;;;15.29;36.07;99736.91;4866024;29;19932;-78
2023/06/04 09:47:15;;;;;;;;;;;;;;;16.35;35.31;99731.69;4857730;29;20003;-79
2023/06/04 09:49:46;;;;;;;;;;;;;;;15.97;35.57;99730.91;4867749;29;19971;-81
2023/06/04 09:52:15;;;;;;;;;;;;;;;15.43;36.42;99718.25;4875088;29;20390;-79
2023/06/04 09:54:43;;;;;;;;;;;;;;;16.66;34.91;99716.28;4876275;29;19935;-81
2023/06/04 09:57:18;;;;;;;;;;;;;;;17.28;32.95;99733.66;4876272;29;20339;-81
2023/06/04 09:59:50;;;;;;;;;;;;;;;17.57;32.73;99725.75;4856693;29;19928;-79
2023/06/04 10:02:19;;;;;;;;;;;;;;;18.09;31.67;99723.81;4861861;29;19983;-81
2023/06/04 10:04:58;;;;;;;;;;;;;;;18.19;31.12;99749.19;4875739;29;19934;-81
2023/06/04 10:07:29;;;;;;;;;;;;;;;17.71;32.12;99726.84;4876482;29;19931;-81
2023/06/04 10:09:56;;;;;;;;;;;;;;;18.29;31.00;99734.69;4876791;29;19927;-80
2023/06/04 10:12:27;;;;;;;;;;;;;;;18.45;31.21;99732.72;4875699;29;19928;-82
2023/06/04 10:15:00;;;;;;;;;;;;;;;18.42;31.96;99733.28;4858106;29;19936;-80
2023/06/04 10:17:28;;;;;;;;;;;;;;;17.52;31.72;99712.94;4849031;29;19982;-81
2023/06/04 10:19:55;;;;;;;;;;;;;;;18.38;30.56;99727.56;4872154;29;19980;-81
2023/06/04 10:22:29;;;;;;;;;;;;;;;18.39;29.62;99721.00;4874965;29;19962;-81
2023/06/04 10:24:58;;;;;;;;;;;;;;;17.07;30.50;99716.44;4874597;29;19929;-82
2023/06/04 10:27:26;;;;;;;;;;;;;;;16.03;32.60;99710.84;4876054;29;19932;-82
2023/06/04 10:29:53;;;;;;;;;;;;;;;15.83;33.19;99711.53;4875530;29;20022;-82
2023/06/04 10:32:21;;;;;;;;;;;;;;;15.18;34.47;99719.66;4874727;29;19927;-82
2023/06/04 10:34:48;;;;;;;;;;;;;;;14.97;35.86;99725.97;4875558;29;19999;-82
2023/06/04 10:37:19;;;;;;;;;;;;;;;14.81;36.54;99724.16;4874232;29;20038;-80
2023/06/04 10:39:50;;;;;;;;;;;;;;;14.39;37.54;99728.25;4875647;29;20018;-82
2023/06/04 10:42:18;;;;;;;;;;;;;;;14.21;37.83;99732.09;4875887;29;19928;-83
2023/06/04 10:44:46;;;;;;;;;;;;;;;14.79;37.88;99720.91;4875949;29;20463;-82
2023/06/04 10:47:22;;;;;;;;;;;;;;;14.97;36.91;99719.72;4875775;29;19927;-83
2023/06/04 10:49:50;;;;;;;;;;;;;;;14.99;36.96;99718.41;4868813;29;20019;-82
2023/06/04 10:52:17;;;;;;;;;;;;;;;15.08;36.73;99711.41;4880734;29;20353;-81
2023/06/04 10:54:53;;;;;;;;;;;;;;;15.33;36.90;99710.81;4865844;29;20014;-81
2023/06/04 10:57:21;;;;;;;;;;;;;;;15.70;36.41;99711.94;4874793;29;19984;-82
2023/06/04 11:00:00;;;;;;;;;;;;;;;16.11;35.87;99729.38;4879659;29;19970;-83
2023/06/04 11:02:29;;;;;;;;;;;;;;;17.45;33.02;99717.03;4863224;29;19934;-82
2023/06/04 11:05:05;;;;;;;;;;;;;;;18.44;31.55;99727.53;4860546;29;19935;-83
2023/06/04 11:07:45;;;;;;;;;;;;;;;18.80;30.34;99717.28;4871369;29;19935;-81
2023/06/04 11:10:13;;;;;;;;;;;;;;;17.68;31.71;99716.47;4875272;29;19927;-80
2023/06/04 11:12:43;;;;;;;;;;;;;;;16.81;32.11;99701.91;4877672;29;19927;-81
2023/06/04 11:15:12;;;;;;;;;;;;;;;16.83;32.97;99722.38;4863800;29;19932;-80
2023/06/04 11:17:59;;;;;;;;;;;;;;;15.81;34.62;99721.84;4860261;29;19950;-81
2023/06/04 11:20:26;;;;;;;;;;;;;;;15.11;35.94;99720.94;4864829;29;19928;-81
2023/06/04 11:35:20;;;;;;;0.50;0.50;;;;;;;15.47;33.81;99722.09;5128252;27;20967;-80
2023/06/04 11:37:55;;;;;;;0.50;0.50;;;;;;;15.95;33.49;99706.69;5107262;28;20051;-81
2023/06/04 11:40:39;;;;;;;0.50;0.50;;;;;;;16.16;33.48;99712.25;5112749;28;20545;-80
2023/06/04 11:43:10;;;;;;;0.50;0.50;;;;;;;15.87;34.59;99709.91;5099084;28;20099;-80
2023/06/04 11:45:37;;;;;;;0.50;0.50;;;;;;;15.80;34.75;99718.31;5100253;28;20487;-80
2023/06/04 11:48:05;;;;;;;0.60;0.60;;;;;;;15.95;34.34;99731.19;5098599;28;20047;-80
2023/06/04 11:50:32;;;;;;;0.50;0.50;;;;;;;15.49;35.22;99730.81;5087020;28;20055;-80
2023/06/04 11:52:59;;;;;;;0.50;0.50;;;;;;;15.21;35.18;99712.88;5102290;28;20048;-80
2023/06/04 11:55:29;;;;;;;0.50;0.50;;;;;;;15.12;35.32;99723.41;5092843;28;20082;-79
2023/06/04 11:57:57;;;;;;;0.50;0.50;;;;;;;14.91;35.72;99711.53;5097626;28;20440;-79
2023/06/04 12:00:26;;;;;;;0.50;0.50;;;;;;;14.95;36.17;99723.50;5105651;28;20048;-80
2023/06/04 12:02:55;;;;;;;0.50;0.50;;;;;;;14.82;36.43;99720.38;5099739;28;20108;-80
2023/06/04 12:05:29;;;;;;;0.50;0.50;;;;;;;14.39;36.67;99733.69;5126522;27;20067;-80
2023/06/04 12:08:10;;;;;;;0.50;0.50;;;;;;;14.21;37.17;99731.28;5101135;28;20507;-79
2023/06/04 12:10:39;;;;;;;0.50;0.50;;;;;;;14.00;37.06;99725.56;5092556;28;20143;-81
2023/06/04 12:13:08;;;;;;;0.60;0.60;;;;;;;13.76;38.07;99729.53;5100474;28;20406;-81
2023/06/04 12:15:36;;;;;;;0.50;0.50;;;;;;;13.88;37.28;99733.78;5115164;28;20348;-81
2023/06/04 12:18:07;;;;;;;0.52;0.52;;;;;;;14.02;37.30;99734.25;5106514;28;20059;-81
2023/06/04 12:23:24;;;;;;;0.50;0.50;;;;;;;14.45;36.72;99737.28;5104148;28;20075;-80
2023/06/04 12:25:51;;;;;;;0.50;0.50;;;;;;;14.30;36.33;99730.59;5105271;28;20142;-81
2023/06/04 12:28:37;;;;;;;0.60;0.60;;;;;;;14.39;36.61;99732.88;5104715;28;20044;-80
2023/06/04 12:31:15;;;;;;;0.57;0.57;;;;;;;14.67;37.41;99738.13;5106728;28;20093;-79
2023/06/04 12:33:43;;;;;;;0.60;0.60;;;;;;;14.74;36.75;99736.06;5105474;28;20082;-81
2023/06/04 12:36:10;;;;;;;0.50;0.50;;;;;;;14.93;36.31;99743.84;5092620;28;20048;-80
2023/06/04 12:38:37;;;;;;;0.60;0.60;;;;;;;14.91;36.05;99730.53;5092934;28;20132;-80
2023/06/04 12:41:05;;;;;;;0.50;0.50;;;;;;;15.03;35.23;99722.22;5074561;28;20051;-81
2023/06/04 12:43:34;;;;;;;0.70;0.70;;;;;;;15.31;34.82;99720.31;5082126;28;20047;-80
2023/06/04 12:46:01;;;;;;;0.80;0.80;;;;;;;15.87;34.33;99723.50;5068261;28;20106;-79
2023/06/04 12:48:28;;;;;;;0.80;0.80;;;;;;;16.65;32.93;99733.72;5083408;28;20052;-79
2023/06/04 12:50:56;;;;;;;0.70;0.70;;;;;;;16.35;33.22;99727.06;5074086;28;20072;-79
2023/06/04 12:53:23;;;;;;;0.60;0.60;;;;;;;16.34;33.84;99739.03;5079935;28;20441;-79
2023/06/04 12:55:50;;;;;;;0.50;0.50;;;;;;;15.44;34.38;99717.16;5086353;28;20059;-79
2023/06/04 12:58:20;;;;;;;0.40;0.40;;;;;;;15.18;34.81;99732.44;5094690;28;20413;-79
2023/06/04 13:00:47;;;;;;;0.60;0.60;;;;;;;14.99;34.46;99737.41;5084622;28;20138;-79
2023/06/04 13:03:35;;;;;;;0.50;0.50;;;;;;;14.90;35.10;99728.06;5085526;28;20144;-80
2023/06/04 13:06:03;;;;;;;0.50;0.50;;;;;;;14.76;35.57;99724.09;5081988;28;20147;-81
2023/06/04 13:08:30;;;;;;;0.50;0.50;;;;;;;14.80;35.75;99711.66;5071983;28;20051;-79
2023/06/04 13:10:58;;;;;;;0.50;0.50;;;;;;;14.90;35.68;99717.19;5082924;28;20143;-80